createdAt,value
2023-02-11T00:01:16.207Z,23.92
2023-02-11T00:03:42.902Z,24.48
2023-02-11T00:06:11.456Z,26.75
2023-02-11T00:08:39.056Z,24.58
2023-02-11T00:11:05.962Z,25.70
2023-02-11T00:13:32.671Z,25.20
2023-02-11T00:15:59.596Z,26.52
2023-02-11T00:18:26.385Z,27.10
2023-02-11T00:20:53.025Z,26.98
2023-02-11T00:23:19.624Z,25.73
2023-02-11T00:25:46.304Z,26.60
2023-02-11T00:28:13.154Z,26.05
2023-02-11T00:30:40.113Z,27.08
2023-02-11T00:33:06.918Z,27.80
2023-02-11T00:35:33.558Z,27.85
2023-02-11T00:38:00.236Z,25.73
2023-02-11T00:40:26.893Z,28.25
2023-02-11T00:42:53.512Z,28.25
2023-02-11T00:45:21.266Z,25.27
2023-02-11T00:47:48.282Z,26.10
2023-02-11T00:50:15.034Z,25.85
2023-02-11T00:52:41.681Z,26.75
2023-02-11T00:55:09.052Z,25.17
2023-02-11T00:57:35.811Z,24.38
2023-02-11T01:00:03.425Z,25.02
2023-02-11T01:02:30.054Z,24.40
2023-02-11T01:04:56.803Z,25.80
2023-02-11T01:07:23.415Z,27.98
2023-02-11T01:09:50.456Z,27.42
2023-02-11T01:12:17.129Z,28.83
2023-02-11T01:14:43.900Z,28.08
2023-02-11T01:17:10.844Z,25.45
2023-02-11T01:19:38.230Z,21.45
2023-02-11T01:22:05.694Z,21.98
2023-02-11T01:24:32.322Z,21.85
2023-02-11T01:26:59.004Z,22.50
2023-02-11T01:29:25.679Z,23.17
2023-02-11T01:31:52.483Z,24.27
2023-02-11T01:34:19.231Z,22.40
2023-02-11T01:36:45.897Z,22.95
2023-02-11T01:39:12.600Z,22.27
2023-02-11T01:41:39.307Z,23.02
2023-02-11T01:44:26.632Z,22.52
2023-02-11T01:46:53.838Z,23.90
2023-02-11T01:49:55.955Z,22.30
2023-02-11T01:52:32.036Z,22.10
2023-02-11T01:55:23.953Z,20.48
2023-02-11T01:57:58.381Z,23.50
2023-02-11T02:00:36.158Z,21.83
2023-02-11T02:03:14.662Z,21.92
2023-02-11T02:05:53.339Z,21.98
2023-02-11T02:08:30.969Z,22.40
2023-02-11T02:11:00.862Z,21.33
2023-02-11T02:13:30.443Z,21.98
2023-02-11T02:15:59.975Z,23.42
2023-02-11T02:18:32.643Z,22.08
2023-02-11T02:21:41.429Z,23.10
2023-02-11T02:24:36.220Z,22.60
2023-02-11T02:27:18.693Z,22.70
2023-02-11T02:30:22.014Z,22.92
2023-02-11T02:33:13.278Z,24.38
2023-02-11T02:36:12.825Z,25.02
2023-02-11T02:38:57.456Z,22.67
2023-02-11T02:41:29.649Z,22.98
2023-02-11T02:43:56.618Z,21.88
2023-02-11T02:46:26.367Z,22.08
2023-02-11T02:48:54.024Z,23.73
2023-02-11T02:51:52.605Z,22.42
2023-02-11T02:54:22.031Z,21.45
2023-02-11T02:57:10.170Z,20.75
2023-02-11T02:59:59.570Z,20.92
2023-02-11T03:02:57.045Z,21.92
2023-02-11T03:05:48.038Z,21.95
2023-02-11T03:08:45.130Z,21.15
2023-02-11T03:11:14.305Z,20.98
2023-02-11T03:13:42.655Z,21.17
2023-02-11T03:16:14.824Z,21.10
2023-02-11T03:18:46.573Z,21.13
2023-02-11T03:21:16.160Z,22.00
2023-02-11T03:23:56.427Z,22.55
2023-02-11T03:26:31.497Z,20.98
2023-02-11T03:29:00.975Z,20.25
2023-02-11T03:31:55.652Z,19.45
2023-02-11T03:34:33.392Z,22.02
2023-02-11T03:37:11.728Z,21.88
2023-02-11T03:39:42.888Z,20.25
2023-02-11T03:42:12.789Z,23.10
2023-02-11T03:44:49.339Z,21.42
2023-02-11T03:47:20.211Z,20.40
2023-02-11T03:49:49.537Z,20.92
2023-02-11T03:52:18.399Z,20.92
2023-02-11T03:54:48.182Z,20.52
2023-02-11T03:57:14.917Z,20.88
2023-02-11T03:59:57.147Z,19.98
2023-02-11T04:02:27.999Z,20.67
2023-02-11T04:04:54.961Z,20.52
2023-02-11T04:07:21.722Z,20.52
2023-02-11T04:09:48.752Z,20.08
2023-02-11T04:12:15.412Z,21.17
2023-02-11T04:14:42.029Z,21.27
2023-02-11T04:17:08.684Z,19.70
2023-02-11T04:19:35.606Z,21.35
2023-02-11T04:22:02.427Z,20.23
2023-02-11T04:24:29.108Z,22.30
2023-02-11T04:26:55.820Z,19.80
2023-02-11T04:29:22.521Z,19.52
2023-02-11T04:31:49.682Z,19.15
2023-02-11T04:34:16.337Z,19.10
2023-02-11T04:36:42.980Z,18.63
2023-02-11T04:39:09.627Z,19.45
2023-02-11T04:41:36.330Z,18.98
2023-02-11T04:44:03.002Z,18.15
2023-02-11T04:46:29.795Z,18.13
2023-02-11T04:48:57.334Z,18.23
2023-02-11T04:51:24.374Z,18.40
2023-02-11T04:53:51.038Z,18.15
2023-02-11T04:56:17.711Z,18.98
2023-02-11T04:58:44.364Z,18.02
2023-02-11T05:01:13.844Z,17.08
2023-02-11T05:03:41.493Z,17.00
2023-02-11T05:06:10.101Z,17.08
2023-02-11T05:08:36.809Z,16.65
2023-02-11T05:11:03.918Z,18.63
2023-02-11T05:13:31.117Z,16.45
2023-02-11T05:15:58.113Z,16.92
2023-02-11T05:18:24.905Z,17.73
2023-02-11T05:20:51.609Z,17.33
2023-02-11T05:23:18.235Z,16.48
2023-02-11T05:25:44.845Z,17.10
2023-02-11T05:28:11.540Z,17.48
2023-02-11T05:30:38.255Z,16.63
2023-02-11T05:33:05.014Z,16.25
2023-02-11T05:35:31.886Z,16.52
2023-02-11T05:37:58.510Z,16.83
2023-02-11T05:40:25.142Z,17.40
2023-02-11T05:42:51.752Z,18.08
2023-02-11T05:45:18.527Z,17.33
2023-02-11T05:47:45.174Z,18.45
2023-02-11T05:50:11.840Z,17.20
2023-02-11T05:52:38.598Z,17.05
2023-02-11T05:55:05.911Z,17.50
2023-02-11T05:57:32.647Z,18.23
2023-02-11T05:59:59.362Z,16.77
2023-02-11T06:02:26.150Z,17.83
2023-02-11T06:04:52.838Z,17.48
2023-02-11T06:07:19.757Z,16.30
2023-02-11T06:09:46.456Z,16.95
2023-02-11T06:12:13.142Z,15.82
2023-02-11T06:14:39.831Z,16.52
2023-02-11T06:17:06.513Z,17.50
2023-02-11T06:19:33.422Z,17.33
2023-02-11T06:22:00.304Z,17.27
2023-02-11T06:24:50.981Z,17.50
2023-02-11T06:27:13.595Z,17.70
2023-02-11T06:29:40.220Z,18.20
2023-02-11T06:32:08.661Z,18.05
2023-02-11T06:34:38.602Z,17.40
2023-02-11T06:37:05.622Z,18.08
2023-02-11T06:39:32.421Z,17.20
2023-02-11T06:41:59.194Z,19.10
2023-02-11T06:44:25.840Z,17.92
2023-02-11T06:46:52.531Z,19.10
2023-02-11T06:49:19.150Z,18.00
2023-02-11T06:51:45.824Z,18.25
2023-02-11T06:54:13.059Z,17.80
2023-02-11T06:56:41.312Z,16.27
2023-02-11T06:59:08.235Z,17.35
2023-02-11T07:01:34.916Z,16.80
2023-02-11T07:04:01.585Z,16.98
2023-02-11T07:06:28.443Z,17.52
2023-02-11T07:08:56.414Z,16.50
2023-02-11T07:11:26.314Z,17.35
2023-02-11T07:13:55.380Z,16.05
2023-02-11T07:16:22.652Z,16.20
2023-02-11T07:18:49.738Z,16.77
2023-02-11T07:21:19.397Z,16.17
2023-02-11T07:23:46.977Z,16.67
2023-02-11T07:26:16.576Z,17.23
2023-02-11T07:28:43.877Z,15.77
2023-02-11T07:31:13.663Z,16.70
2023-02-11T07:33:41.086Z,15.38
2023-02-11T07:36:10.072Z,16.92
2023-02-11T07:38:37.690Z,17.15
2023-02-11T07:41:10.168Z,16.33
2023-02-11T07:43:39.036Z,16.60
2023-02-11T07:46:08.396Z,15.30
2023-02-11T07:48:35.137Z,15.57
2023-02-11T07:51:17.910Z,15.07
2023-02-11T07:53:45.325Z,16.88
2023-02-11T07:56:13.783Z,15.00
2023-02-11T07:58:42.172Z,16.50
2023-02-11T08:01:15.169Z,16.13
2023-02-11T08:03:42.840Z,15.15
2023-02-11T08:06:15.607Z,15.60
2023-02-11T08:08:43.196Z,16.33
2023-02-11T08:11:12.654Z,15.85
2023-02-11T08:13:39.482Z,14.98
2023-02-11T08:16:07.081Z,15.60
2023-02-11T08:18:35.141Z,15.38
2023-02-11T08:21:09.327Z,14.80
2023-02-11T08:23:38.028Z,15.80
2023-02-11T08:26:09.771Z,16.13
2023-02-11T08:28:37.591Z,14.85
2023-02-11T08:31:09.310Z,14.55
2023-02-11T08:33:36.349Z,14.45
2023-02-11T08:36:12.281Z,13.30
2023-02-11T08:38:39.374Z,15.90
2023-02-11T08:41:06.778Z,15.55
2023-02-11T08:43:34.085Z,15.27
2023-02-11T08:46:02.335Z,14.25
2023-02-11T08:48:29.959Z,15.32
2023-02-11T08:50:56.762Z,15.57
2023-02-11T08:53:23.683Z,14.73
2023-02-11T08:55:55.117Z,13.85
2023-02-11T08:58:22.683Z,14.20
2023-02-11T09:00:50.245Z,13.98
2023-02-11T09:03:17.934Z,14.32
2023-02-11T09:05:47.682Z,14.02
2023-02-11T09:08:14.639Z,14.90
2023-02-11T09:10:41.594Z,14.43
2023-02-11T09:13:08.631Z,14.85
2023-02-11T09:15:35.659Z,14.43
2023-02-11T09:18:03.661Z,13.05
2023-02-11T09:20:30.497Z,13.48
2023-02-11T09:22:58.809Z,14.02
2023-02-11T09:25:26.070Z,12.88
2023-02-11T09:27:53.767Z,13.30
2023-02-11T09:30:21.001Z,14.18
2023-02-11T09:32:47.802Z,12.98
2023-02-11T09:35:14.471Z,13.57
2023-02-11T09:37:41.158Z,13.25
2023-02-11T09:40:08.498Z,12.80
2023-02-11T09:42:53.623Z,13.07
2023-02-11T09:45:24.251Z,12.80
2023-02-11T09:48:06.254Z,13.75
2023-02-11T09:50:36.279Z,13.32
2023-02-11T09:53:16.704Z,13.20
2023-02-11T09:55:46.935Z,12.57
2023-02-11T09:58:16.271Z,12.60
2023-02-11T10:00:52.904Z,12.55
2023-02-11T10:03:42.744Z,13.57
2023-02-11T10:06:21.764Z,12.55
2023-02-11T10:09:09.642Z,12.88
2023-02-11T10:12:09.178Z,12.23
2023-02-11T10:14:41.789Z,14.45
2023-02-11T10:17:37.680Z,13.10
2023-02-11T10:20:28.922Z,14.55
2023-02-11T10:22:59.200Z,12.82
2023-02-11T10:25:38.332Z,12.73
2023-02-11T10:28:19.999Z,13.63
2023-02-11T10:30:59.420Z,13.25
2023-02-11T10:33:36.779Z,13.35
2023-02-11T10:36:04.971Z,13.40
2023-02-11T10:38:33.753Z,12.85
2023-02-11T10:41:00.466Z,14.10
2023-02-11T10:43:30.739Z,14.20
2023-02-11T10:45:58.764Z,12.88
2023-02-11T10:48:40.775Z,13.27
2023-02-11T10:51:14.652Z,14.23
2023-02-11T10:53:41.518Z,12.00
2023-02-11T10:56:11.269Z,13.43
2023-02-11T10:58:45.598Z,14.43
2023-02-11T11:01:23.960Z,14.40
2023-02-11T11:03:52.806Z,14.32
2023-02-11T11:06:33.561Z,14.82
2023-02-11T11:09:01.054Z,14.90
2023-02-11T11:11:28.006Z,14.90
2023-02-11T11:13:59.798Z,14.40
2023-02-11T11:16:29.326Z,15.13
2023-02-11T11:19:08.106Z,14.80
2023-02-11T11:21:50.179Z,14.43
2023-02-11T11:24:21.784Z,15.77
2023-02-11T11:26:54.426Z,16.83
2023-02-11T11:29:28.655Z,14.73
2023-02-11T11:31:59.336Z,15.27
2023-02-11T11:34:38.140Z,15.50
2023-02-11T11:37:31.975Z,14.68
2023-02-11T11:40:23.878Z,15.80
2023-02-11T11:43:12.423Z,15.15
2023-02-11T11:45:39.284Z,14.88
2023-02-11T11:48:32.728Z,15.77
2023-02-11T11:51:05.753Z,14.35
2023-02-11T11:54:03.256Z,14.48
2023-02-11T11:56:33.742Z,15.38
2023-02-11T11:59:02.387Z,15.30
2023-02-11T12:01:47.227Z,15.02
2023-02-11T12:04:27.477Z,15.02
2023-02-11T12:07:00.560Z,15.02
2023-02-11T12:09:44.068Z,14.63
2023-02-11T12:12:32.600Z,15.55
2023-02-11T12:15:23.113Z,15.60
2023-02-11T12:17:59.941Z,14.70
2023-02-11T12:20:51.280Z,15.60
2023-02-11T12:23:33.170Z,15.05
2023-02-11T12:26:19.497Z,15.70
2023-02-11T12:29:04.757Z,15.30
2023-02-11T12:32:10.922Z,15.30
2023-02-11T12:35:12.951Z,15.80
2023-02-11T12:38:08.230Z,15.20
2023-02-11T12:40:46.682Z,15.65
2023-02-11T12:43:29.406Z,16.10
2023-02-11T12:46:17.607Z,16.27
2023-02-11T12:49:23.739Z,15.27
2023-02-11T12:52:00.851Z,15.85
2023-02-11T12:54:47.559Z,14.88
2023-02-11T12:57:21.465Z,14.45
2023-02-11T13:00:07.154Z,14.48
2023-02-11T13:03:06.682Z,14.57
2023-02-11T13:05:56.904Z,15.57
2023-02-11T13:08:33.431Z,15.23
2023-02-11T13:11:14.233Z,15.52
2023-02-11T13:13:49.653Z,16.20
2023-02-11T13:16:35.183Z,15.70
2023-02-11T13:19:14.157Z,16.27
2023-02-11T13:22:05.626Z,14.63
2023-02-11T13:24:51.078Z,16.23
2023-02-11T13:27:45.445Z,15.40
2023-02-11T13:30:30.476Z,16.02
2023-02-11T13:32:57.110Z,15.18
2023-02-11T13:35:36.619Z,16.45
2023-02-11T13:38:16.366Z,16.50
2023-02-11T13:40:43.864Z,17.25
2023-02-11T13:43:25.486Z,16.00
2023-02-11T13:45:57.390Z,17.30
2023-02-11T13:48:58.598Z,16.75
2023-02-11T13:51:40.354Z,16.73
2023-02-11T13:54:08.181Z,16.00
2023-02-11T13:56:40.586Z,16.35
2023-02-11T13:59:33.332Z,16.25
2023-02-11T14:02:18.603Z,15.40
2023-02-11T14:05:45.762Z,16.40
2023-02-11T14:08:31.301Z,16.15
2023-02-11T14:11:14.308Z,16.17
2023-02-11T14:13:47.152Z,15.17
2023-02-11T14:16:36.312Z,16.52
2023-02-11T14:19:06.044Z,16.25
2023-02-11T14:21:36.631Z,16.33
2023-02-11T14:24:04.826Z,15.23
2023-02-11T14:26:48.434Z,15.95
2023-02-11T14:29:28.754Z,16.48
2023-02-11T14:32:06.129Z,16.08
2023-02-11T14:34:54.506Z,15.00
2023-02-11T14:37:51.176Z,15.75
2023-02-11T14:40:36.567Z,16.48
2023-02-11T14:43:29.635Z,16.13
2023-02-11T14:45:58.346Z,16.03
2023-02-11T14:48:37.100Z,15.63
2023-02-11T14:51:07.092Z,16.60
2023-02-11T14:53:35.010Z,15.48
2023-02-11T14:56:01.654Z,16.30
2023-02-11T14:58:32.510Z,16.33
2023-02-11T15:01:22.852Z,15.73
2023-02-11T15:03:49.962Z,17.55
2023-02-11T15:06:32.188Z,16.17
2023-02-11T15:09:03.982Z,16.73
2023-02-11T15:11:40.476Z,15.00
2023-02-11T15:14:10.997Z,15.77
2023-02-11T15:16:43.971Z,15.48
2023-02-11T15:19:24.470Z,16.00
2023-02-11T15:21:52.841Z,15.57
2023-02-11T15:24:30.793Z,17.13
2023-02-11T15:27:03.139Z,15.70
2023-02-11T15:29:42.019Z,16.52
2023-02-11T15:32:23.010Z,16.35
2023-02-11T15:34:53.591Z,17.00
2023-02-11T15:37:26.568Z,15.50
2023-02-11T15:39:54.602Z,16.67
2023-02-11T15:42:34.066Z,17.70
2023-02-11T15:45:38.793Z,16.00
2023-02-11T15:48:14.768Z,17.05
2023-02-11T15:50:43.469Z,16.08
2023-02-11T15:53:37.959Z,16.63
2023-02-11T15:56:13.840Z,16.65
2023-02-11T15:58:42.465Z,16.48
2023-02-11T16:01:10.416Z,17.13
2023-02-11T16:03:37.418Z,16.52
2023-02-11T16:06:25.105Z,16.73
2023-02-11T16:09:12.637Z,18.23
2023-02-11T16:11:48.224Z,17.67
2023-02-11T16:14:34.495Z,19.65
2023-02-11T16:17:06.319Z,17.95
2023-02-11T16:19:34.700Z,17.95
2023-02-11T16:22:08.389Z,17.60
2023-02-11T16:24:37.168Z,17.27
2023-02-11T16:27:07.651Z,18.88
2023-02-11T16:29:37.015Z,17.70
2023-02-11T16:32:16.383Z,18.52
2023-02-11T16:34:43.522Z,18.38
2023-02-11T16:37:10.550Z,17.38
2023-02-11T16:39:37.319Z,16.08
2023-02-11T16:42:07.622Z,16.70
2023-02-11T16:44:34.850Z,17.27
2023-02-11T16:47:03.286Z,17.17
2023-02-11T16:49:34.167Z,16.95
2023-02-11T16:52:05.236Z,16.25
2023-02-11T16:54:32.013Z,16.90
2023-02-11T16:56:59.109Z,16.98
2023-02-11T16:59:25.790Z,16.48
2023-02-11T17:01:53.642Z,16.77
2023-02-11T17:04:24.445Z,16.98
2023-02-11T17:06:51.397Z,16.98
2023-02-11T17:09:30.130Z,17.65
2023-02-11T17:11:57.382Z,16.73
2023-02-11T17:14:24.128Z,17.02
2023-02-11T17:16:51.023Z,16.98
2023-02-11T17:19:20.883Z,15.18
2023-02-11T17:21:50.592Z,15.85
2023-02-11T17:24:17.756Z,16.35
2023-02-11T17:26:45.323Z,13.13
2023-02-11T17:29:17.299Z,13.68
2023-02-11T17:31:44.424Z,15.50
2023-02-11T17:34:11.599Z,16.40
2023-02-11T17:36:38.445Z,15.45
2023-02-11T17:39:08.088Z,15.73
2023-02-11T17:41:37.012Z,16.85
2023-02-11T17:44:04.072Z,15.45
2023-02-11T17:46:32.086Z,17.20
2023-02-11T17:48:59.576Z,17.75
2023-02-11T17:51:32.561Z,19.73
2023-02-11T17:54:01.724Z,18.98
2023-02-11T17:56:30.791Z,19.85
2023-02-11T17:58:57.531Z,22.42
2023-02-11T18:01:27.996Z,22.92
2023-02-11T18:03:54.811Z,21.85
2023-02-11T18:06:21.945Z,24.08
2023-02-11T18:08:49.094Z,22.90
2023-02-11T18:11:16.622Z,20.88
2023-02-11T18:13:45.210Z,18.35
2023-02-11T18:16:15.643Z,17.88
2023-02-11T18:18:43.682Z,15.93
2023-02-11T18:21:17.989Z,16.05
2023-02-11T18:23:45.319Z,15.50
2023-02-11T18:26:14.523Z,15.05
2023-02-11T18:28:44.518Z,14.52
2023-02-11T18:31:13.000Z,14.98
2023-02-11T18:33:40.971Z,15.32
2023-02-11T18:36:10.053Z,15.35
2023-02-11T18:38:37.149Z,15.85
2023-02-11T18:41:04.465Z,15.93
2023-02-11T18:43:33.561Z,16.25
2023-02-11T18:46:01.697Z,15.65
2023-02-11T18:48:28.488Z,15.63
2023-02-11T18:50:55.992Z,13.60
2023-02-11T18:53:23.293Z,14.43
2023-02-11T18:55:50.467Z,15.23
2023-02-11T18:58:17.834Z,15.32
2023-02-11T19:00:46.722Z,16.77
2023-02-11T19:03:13.980Z,16.45
2023-02-11T19:05:47.708Z,16.35
2023-02-11T19:08:14.959Z,16.05
2023-02-11T19:10:46.433Z,15.07
2023-02-11T19:13:14.259Z,14.88
2023-02-11T19:15:42.698Z,15.73
2023-02-11T19:18:10.553Z,17.08
2023-02-11T19:20:42.197Z,16.92
2023-02-11T19:23:09.374Z,18.63
2023-02-11T19:25:36.233Z,17.40
2023-02-11T19:28:03.486Z,17.90
2023-02-11T19:30:30.547Z,17.25
2023-02-11T19:32:57.715Z,16.20
2023-02-11T19:35:25.639Z,15.88
2023-02-11T19:37:52.363Z,16.77
2023-02-11T19:40:21.168Z,19.25
2023-02-11T19:42:47.876Z,20.40
2023-02-11T19:45:14.562Z,19.85
2023-02-11T19:47:41.328Z,18.60
2023-02-11T19:50:09.185Z,18.23
2023-02-11T19:52:38.486Z,17.45
2023-02-11T19:55:05.511Z,17.55
2023-02-11T19:57:32.138Z,17.95
2023-02-11T19:59:58.808Z,16.45
2023-02-11T20:02:25.581Z,14.82
2023-02-11T20:04:52.272Z,16.52
2023-02-11T20:07:18.988Z,15.35
2023-02-11T20:09:45.611Z,16.67
2023-02-11T20:12:12.398Z,16.30
2023-02-11T20:14:39.292Z,17.13
2023-02-11T20:17:05.967Z,16.95
2023-02-11T20:19:32.768Z,17.23
2023-02-11T20:21:59.577Z,18.10
2023-02-11T20:24:26.352Z,17.52
2023-02-11T20:26:56.520Z,18.08
2023-02-11T20:29:24.114Z,18.98
2023-02-11T20:31:50.981Z,16.42
2023-02-11T20:34:18.040Z,17.85
2023-02-11T20:36:51.986Z,16.77
2023-02-11T20:39:21.699Z,16.38
2023-02-11T20:41:49.697Z,17.00
2023-02-11T20:44:16.697Z,16.52
2023-02-11T20:46:48.419Z,15.93
2023-02-11T20:49:18.724Z,15.95
2023-02-11T20:51:45.881Z,17.73
2023-02-11T20:54:14.834Z,17.48
2023-02-11T20:56:41.696Z,20.70
2023-02-11T20:59:09.097Z,17.77
2023-02-11T21:01:40.610Z,16.73
2023-02-11T21:04:11.914Z,17.13
2023-02-11T21:06:41.667Z,16.27
2023-02-11T21:09:10.866Z,16.38
2023-02-11T21:11:37.621Z,17.65
2023-02-11T21:14:04.840Z,18.30
2023-02-11T21:16:32.087Z,18.88
2023-02-11T21:18:58.852Z,16.95
2023-02-11T21:21:25.497Z,18.70
2023-02-11T21:23:52.171Z,18.13
2023-02-11T21:26:18.938Z,16.77
2023-02-11T21:28:45.567Z,16.35
2023-02-11T21:31:20.873Z,16.30
2023-02-11T21:33:48.711Z,15.38
2023-02-11T21:36:15.375Z,15.13
2023-02-11T21:38:42.230Z,16.20
2023-02-11T21:41:08.992Z,15.73
2023-02-11T21:43:35.687Z,14.40
2023-02-11T21:46:08.101Z,15.50
2023-02-11T21:48:34.994Z,14.77
2023-02-11T21:51:05.658Z,14.60
2023-02-11T21:53:32.567Z,14.98
2023-02-11T21:56:18.426Z,14.98
2023-02-11T21:58:46.083Z,14.85
2023-02-11T22:01:14.159Z,13.95
2023-02-11T22:03:41.178Z,14.05
2023-02-11T22:06:10.416Z,14.30
2023-02-11T22:08:37.848Z,15.02
2023-02-11T22:11:06.266Z,14.20
2023-02-11T22:13:33.681Z,15.75
2023-02-11T22:16:02.236Z,15.15
2023-02-11T22:18:32.462Z,13.85
2023-02-11T22:21:01.159Z,15.50
2023-02-11T22:23:28.757Z,14.23
2023-02-11T22:25:56.238Z,15.27
2023-02-11T22:28:23.418Z,16.30
2023-02-11T22:30:57.566Z,14.57
2023-02-11T22:33:25.595Z,15.13
2023-02-11T22:36:03.755Z,14.48
2023-02-11T22:38:31.195Z,15.43
2023-02-11T22:40:58.991Z,15.80
2023-02-11T22:43:25.672Z,16.02
2023-02-11T22:45:52.552Z,16.75
2023-02-11T22:48:22.090Z,14.13
2023-02-11T22:50:49.670Z,14.68
2023-02-11T22:53:16.312Z,15.48
2023-02-11T22:55:42.956Z,14.63
2023-02-11T22:58:09.862Z,15.35
2023-02-11T23:00:39.307Z,14.93
2023-02-11T23:03:07.436Z,13.65
2023-02-11T23:05:39.306Z,15.20
2023-02-11T23:08:07.749Z,14.07
2023-02-11T23:10:36.359Z,14.93
2023-02-11T23:13:04.441Z,14.32
2023-02-11T23:15:31.695Z,14.70
2023-02-11T23:17:58.446Z,14.70
2023-02-11T23:20:25.428Z,13.70
2023-02-11T23:22:52.090Z,15.02
2023-02-11T23:25:18.747Z,15.32
2023-02-11T23:27:45.369Z,15.07
2023-02-11T23:30:12.546Z,15.55
2023-02-11T23:32:39.575Z,13.95
2023-02-11T23:35:06.400Z,15.52
2023-02-11T23:37:33.105Z,13.65
2023-02-11T23:39:59.747Z,14.10
2023-02-11T23:42:26.427Z,15.00
2023-02-11T23:44:53.031Z,14.90
2023-02-11T23:47:19.802Z,13.18
2023-02-11T23:49:46.417Z,14.23
2023-02-11T23:52:13.575Z,12.75
2023-02-11T23:54:40.286Z,14.02
2023-02-11T23:57:06.910Z,14.50
2023-02-11T23:59:33.510Z,14.10
